Time;durP1;ratioP1;P1;durP2;ratioP2;P2;SDS_P1;SDS_P2;PMS_P1;PMS_P2;Temp;Humidity;BMP_temperature;BMP_pressure;BME280_temperature;BME280_humidity;BME280_pressure;Samples;Min_cycle;Max_cycle;Signal;HPM_P1;HPM_P2
2022/08/19 00:02:10;;;;;;;10.80;7.40;;;21.70;85.90;;;;;;5007108;28;20042;-64
2022/08/19 00:04:36;;;;;;;15.30;8.55;;;21.70;86.40;;;;;;5007490;28;20663;-65
2022/08/19 00:07:03;;;;;;;10.88;7.28;;;21.60;86.80;;;;;;4991658;28;20041;-65
2022/08/19 00:09:29;;;;;;;12.52;7.88;;;21.50;87.10;;;;;;5012018;28;20046;-67
2022/08/19 00:11:55;;;;;;;12.43;7.05;;;21.60;86.60;;;;;;4991118;28;20060;-65
2022/08/19 00:14:21;;;;;;;11.95;8.23;;;21.70;86.00;;;;;;5013191;28;20102;-67
2022/08/19 00:16:47;;;;;;;11.80;7.25;;;21.70;86.20;;;;;;5009940;28;20049;-65
2022/08/19 00:19:13;;;;;;;13.25;7.65;;;21.60;86.30;;;;;;4993619;28;20050;-65
2022/08/19 00:21:39;;;;;;;9.70;7.15;;;21.60;86.40;;;;;;5015575;28;20442;-65
2022/08/19 00:24:08;;;;;;;9.65;7.07;;;21.60;86.50;;;;;;5011702;28;20495;-64
2022/08/19 00:26:34;;;;;;;10.52;7.13;;;21.60;86.30;;;;;;5012716;28;20115;-65
2022/08/19 00:29:00;;;;;;;11.30;7.93;;;21.60;86.70;;;;;;5002411;28;20054;-65
2022/08/19 00:31:27;;;;;;;10.10;7.50;;;21.60;86.70;;;;;;4983877;28;20045;-66
2022/08/19 00:33:53;;;;;;;10.55;7.50;;;21.50;87.20;;;;;;5011638;28;20045;-65
2022/08/19 00:36:19;;;;;;;9.85;7.80;;;21.50;87.00;;;;;;5017564;28;20046;-66
2022/08/19 00:38:46;;;;;;;11.52;7.95;;;21.50;87.00;;;;;;5016562;28;20115;-64
2022/08/19 00:41:17;;;;;;;10.85;7.60;;;21.50;86.60;;;;;;5000145;28;20183;-66
2022/08/19 00:43:43;;;;;;;14.23;8.00;;;21.50;86.50;;;;;;5010764;28;20049;-65
2022/08/19 00:46:11;;;;;;;9.73;7.60;;;21.50;86.60;;;;;;5010819;28;20100;-64
2022/08/19 00:48:37;;;;;;;13.10;8.15;;;21.50;86.80;;;;;;5063489;28;20049;-66
2022/08/19 00:51:03;;;;;;;10.88;7.63;;;21.50;86.70;;;;;;5011946;28;20103;-65
2022/08/19 00:53:30;;;;;;;11.23;7.45;;;21.50;86.20;;;;;;5012329;28;20451;-65
2022/08/19 00:55:57;;;;;;;10.18;7.15;;;21.50;86.10;;;;;;5027140;28;20103;-65
2022/08/19 00:58:27;;;;;;;11.55;8.20;;;21.50;86.10;;;;;;5018781;28;20041;-65
2022/08/19 01:00:53;;;;;;;11.90;7.55;;;21.50;86.30;;;;;;5012024;28;20460;-65
2022/08/19 01:03:19;;;;;;;10.43;7.43;;;21.40;86.50;;;;;;5026707;28;20076;-67
2022/08/19 01:05:45;;;;;;;9.82;7.65;;;21.50;86.00;;;;;;4996059;28;20049;-65
2022/08/19 01:08:10;;;;;;;10.20;6.97;;;21.50;85.80;;;;;;5007276;28;20103;-65
2022/08/19 01:10:39;;;;;;;12.98;7.38;;;21.50;85.90;;;;;;5001426;28;20070;-69
2022/08/19 01:13:05;;;;;;;10.73;7.63;;;21.50;85.50;;;;;;5021634;28;20798;-65
2022/08/19 01:15:40;;;;;;;11.23;7.60;;;21.40;85.70;;;;;;5022945;28;20060;-68
2022/08/19 01:18:07;;;;;;;11.82;8.10;;;21.30;86.20;;;;;;4993703;28;20058;-68
2022/08/19 01:20:34;;;;;;;13.05;7.38;;;21.30;86.40;;;;;;5049542;28;20068;-67
2022/08/19 01:23:00;;;;;;;10.55;7.35;;;21.20;86.40;;;;;;5018116;28;20579;-68
2022/08/19 01:25:55;;;;;;;10.02;7.18;;;21.10;86.70;;;;;;5009879;28;20133;-67
2022/08/19 01:28:25;;;;;;;11.13;7.80;;;21.10;86.60;;;;;;5014616;28;20554;-68
2022/08/19 01:30:51;;;;;;;12.45;7.70;;;21.10;86.80;;;;;;4998708;28;20075;-68
2022/08/19 01:33:17;;;;;;;10.27;7.30;;;21.00;86.40;;;;;;5011092;28;20057;-69
2022/08/19 01:35:43;;;;;;;11.57;7.72;;;21.00;86.50;;;;;;5010615;28;20053;-69
2022/08/19 01:38:17;;;;;;;11.48;7.60;;;20.90;87.10;;;;;;5013828;28;20053;-69
2022/08/19 01:40:42;;;;;;;11.95;7.70;;;20.90;87.20;;;;;;5012795;28;20534;-69
2022/08/19 01:43:08;;;;;;;12.85;7.85;;;20.80;87.70;;;;;;4993817;28;20137;-69
2022/08/19 01:45:34;;;;;;;11.13;7.25;;;20.80;87.50;;;;;;5015882;28;20056;-69
2022/08/19 01:48:00;;;;;;;12.90;7.63;;;20.80;87.20;;;;;;5017244;28;20966;-69
2022/08/19 01:50:26;;;;;;;12.70;7.82;;;20.70;87.30;;;;;;5013171;28;20046;-69
2022/08/19 01:52:52;;;;;;;11.45;7.53;;;20.60;88.10;;;;;;5012666;28;20053;-69
2022/08/19 01:55:19;;;;;;;11.02;8.25;;;20.60;87.70;;;;;;4998955;28;20111;-69
2022/08/19 01:57:50;;;;;;;12.65;7.90;;;20.60;87.50;;;;;;5011805;28;20057;-68
2022/08/19 02:00:17;;;;;;;10.65;8.00;;;20.50;87.90;;;;;;5043603;28;20045;-68
2022/08/19 02:02:43;;;;;;;9.68;7.50;;;20.50;88.30;;;;;;5012062;28;20535;-69
2022/08/19 02:05:08;;;;;;;11.07;7.22;;;20.40;88.10;;;;;;4996587;28;20049;-67
2022/08/19 02:07:35;;;;;;;14.73;8.52;;;20.40;88.10;;;;;;4993635;28;21904;-67
2022/08/19 02:10:06;;;;;;;14.40;7.93;;;20.20;88.60;;;;;;5030130;28;20107;-68
2022/08/19 02:12:32;;;;;;;13.90;8.13;;;20.30;88.80;;;;;;5010286;28;20042;-67
2022/08/19 02:14:58;;;;;;;9.18;8.10;;;20.20;88.80;;;;;;5015937;28;20112;-67
2022/08/19 02:17:24;;;;;;;12.07;7.95;;;20.20;89.10;;;;;;5010675;28;20041;-67
2022/08/19 02:19:50;;;;;;;9.55;7.47;;;20.10;89.30;;;;;;5045658;28;20114;-68
2022/08/19 02:22:16;;;;;;;14.73;8.32;;;20.20;88.90;;;;;;5009195;28;20046;-68
2022/08/19 02:24:42;;;;;;;10.77;8.45;;;20.20;89.20;;;;;;5015452;28;20057;-68
2022/08/19 02:27:07;;;;;;;14.40;8.50;;;20.10;89.60;;;;;;5010055;28;20128;-68
2022/08/19 02:29:33;;;;;;;12.18;8.43;;;20.10;89.80;;;;;;5039507;28;20454;-68
2022/08/19 02:31:59;;;;;;;11.38;8.20;;;20.00;89.70;;;;;;4998164;28;20049;-67
2022/08/19 02:34:25;;;;;;;13.45;8.32;;;20.00;90.00;;;;;;5045857;28;20147;-68
2022/08/19 02:36:51;;;;;;;13.85;8.77;;;20.00;90.00;;;;;;4978630;28;20589;-68
2022/08/19 02:39:17;;;;;;;10.60;7.75;;;19.90;90.20;;;;;;5000500;28;20108;-68
2022/08/19 02:41:43;;;;;;;12.75;9.02;;;19.90;90.00;;;;;;5009920;28;20053;-67
2022/08/19 02:44:08;;;;;;;11.30;7.70;;;19.80;90.20;;;;;;5016074;28;20169;-67
2022/08/19 02:46:35;;;;;;;13.23;8.00;;;19.80;90.20;;;;;;5016572;28;20056;-67
2022/08/19 02:49:03;;;;;;;14.95;8.27;;;19.80;90.00;;;;;;4996947;28;20046;-69
2022/08/19 02:51:37;;;;;;;13.02;9.35;;;19.90;89.90;;;;;;5014468;28;20053;-69
2022/08/19 02:54:03;;;;;;;12.60;8.90;;;19.90;90.00;;;;;;5008684;28;20045;-67
2022/08/19 02:56:30;;;;;;;13.75;8.80;;;19.80;90.00;;;;;;5008651;28;20179;-67
2022/08/19 02:58:57;;;;;;;13.40;9.55;;;19.70;90.20;;;;;;5016800;28;20523;-69
2022/08/19 03:01:28;;;;;;;12.35;8.50;;;19.70;90.30;;;;;;5014435;28;20053;-67
2022/08/19 03:03:55;;;;;;;12.10;8.63;;;19.70;90.30;;;;;;5008627;28;20488;-68
2022/08/19 03:06:21;;;;;;;12.55;8.90;;;19.60;90.40;;;;;;5042499;28;20459;-70
2022/08/19 03:08:48;;;;;;;12.70;8.27;;;19.50;90.60;;;;;;5024251;28;20080;-69
2022/08/19 03:11:18;;;;;;;14.95;8.60;;;19.60;90.60;;;;;;5012237;28;20511;-72
2022/08/19 03:13:44;;;;;;;12.77;8.45;;;19.50;90.60;;;;;;5008807;28;20057;-69
2022/08/19 03:16:10;;;;;;;16.88;9.07;;;19.50;90.80;;;;;;4998917;28;20050;-70
2022/08/19 03:18:36;;;;;;;12.65;9.18;;;19.40;90.70;;;;;;4995329;28;20090;-70
2022/08/19 03:21:02;;;;;;;11.85;8.32;;;19.50;90.70;;;;;;5016000;28;20045;-69
2022/08/19 03:23:28;;;;;;;11.85;8.77;;;19.50;90.60;;;;;;5008054;28;20049;-70
2022/08/19 03:25:53;;;;;;;14.15;8.32;;;19.50;90.60;;;;;;5011551;28;20068;-69
2022/08/19 03:28:19;;;;;;;13.68;8.10;;;19.50;90.70;;;;;;5017488;28;20137;-70
2022/08/19 03:30:58;;;;;;;14.77;9.93;;;19.50;90.50;;;;;;4979803;28;20112;-69
2022/08/19 03:33:24;;;;;;;12.85;8.35;;;19.50;90.60;;;;;;5018751;28;20049;-70
2022/08/19 03:36:22;;;;;;;13.65;9.32;;;19.60;90.40;;;;;;5018030;28;20069;-71
2022/08/19 03:38:49;;;;;;;15.13;8.90;;;19.60;90.70;;;;;;5013081;28;20045;-69
2022/08/19 03:41:17;;;;;;;16.40;8.57;;;19.50;90.80;;;;;;5008696;28;20144;-70
2022/08/19 03:43:46;;;;;;;15.82;8.73;;;19.50;90.80;;;;;;5008491;28;20045;-70
2022/08/19 03:46:13;;;;;;;14.52;8.48;;;19.50;90.90;;;;;;5015861;28;20056;-69
2022/08/19 03:48:40;;;;;;;12.07;8.18;;;19.50;91.00;;;;;;5014970;28;20042;-70
2022/08/19 03:51:06;;;;;;;14.13;8.60;;;19.60;90.60;;;;;;5014128;28;20077;-70
2022/08/19 03:53:32;;;;;;;13.25;8.95;;;19.40;90.80;;;;;;5005171;28;20136;-70
2022/08/19 03:56:01;;;;;;;13.38;7.90;;;19.40;91.10;;;;;;5007902;28;20480;-70
2022/08/19 03:58:28;;;;;;;14.02;9.23;;;19.40;90.90;;;;;;5012397;28;20055;-70
2022/08/19 04:00:55;;;;;;;14.02;9.25;;;19.30;90.90;;;;;;5000303;28;20125;-73
2022/08/19 04:03:21;;;;;;;16.08;9.77;;;19.30;91.20;;;;;;4992641;28;20052;-68
2022/08/19 04:05:47;;;;;;;12.18;8.85;;;19.20;91.10;;;;;;5008694;28;20045;-67
2022/08/19 04:08:13;;;;;;;13.38;8.70;;;19.20;91.10;;;;;;5029060;28;20041;-67
2022/08/19 04:10:40;;;;;;;12.68;9.10;;;19.20;91.20;;;;;;5021091;28;20041;-67
2022/08/19 04:13:06;;;;;;;16.90;9.73;;;19.20;91.30;;;;;;4992919;28;20053;-67
2022/08/19 04:15:38;;;;;;;17.83;9.48;;;19.10;91.50;;;;;;5019001;28;20156;-68
2022/08/19 04:18:07;;;;;;;16.85;10.25;;;19.00;91.40;;;;;;5018277;28;20053;-67
2022/08/19 04:20:42;;;;;;;14.43;9.38;;;19.10;91.50;;;;;;5014876;28;20107;-67
2022/08/19 04:23:10;;;;;;;13.43;9.20;;;19.00;91.60;;;;;;5012465;28;20052;-68
2022/08/19 04:25:37;;;;;;;13.98;8.95;;;19.10;91.50;;;;;;5006894;28;20045;-68
2022/08/19 04:28:03;;;;;;;15.82;9.38;;;19.10;91.20;;;;;;5011655;28;20471;-68
2022/08/19 04:30:29;;;;;;;13.40;9.45;;;19.10;91.40;;;;;;5008319;28;20042;-69
2022/08/19 04:32:55;;;;;;;16.60;10.25;;;19.10;91.30;;;;;;4997266;28;20056;-68
2022/08/19 04:35:20;;;;;;;14.88;9.65;;;19.10;91.20;;;;;;5007439;28;20057;-67
2022/08/19 04:37:46;;;;;;;13.10;9.63;;;19.20;91.20;;;;;;5007695;28;20078;-68
2022/08/19 04:42:56;;;;;;;14.25;9.82;;;19.20;91.00;;;;;;5013109;28;20050;-67
2022/08/19 04:45:22;;;;;;;14.63;10.50;;;19.00;91.20;;;;;;5007623;28;20345;-68
2022/08/19 04:47:48;;;;;;;15.07;9.70;;;19.00;91.30;;;;;;5036665;28;20045;-68
2022/08/19 04:50:14;;;;;;;15.60;10.07;;;19.00;91.40;;;;;;5017915;28;20236;-68
2022/08/19 04:52:42;;;;;;;14.73;9.75;;;19.00;91.30;;;;;;5007771;28;20525;-68
2022/08/19 04:55:10;;;;;;;14.82;9.15;;;18.90;91.30;;;;;;5006521;28;20132;-68
2022/08/19 04:57:39;;;;;;;13.52;9.32;;;18.90;91.30;;;;;;5008142;28;20054;-68
2022/08/19 05:00:06;;;;;;;14.05;9.70;;;18.80;91.40;;;;;;5004454;28;20112;-69
2022/08/19 05:02:31;;;;;;;12.52;8.75;;;18.80;91.80;;;;;;4987383;28;20052;-68
2022/08/19 05:05:00;;;;;;;9.98;8.45;;;18.80;91.60;;;;;;5023003;28;20620;-68
2022/08/19 05:07:26;;;;;;;13.02;8.38;;;18.80;91.60;;;;;;5009722;28;20045;-66
2022/08/19 05:09:52;;;;;;;13.07;8.63;;;18.80;91.80;;;;;;4984537;28;20048;-65
2022/08/19 05:12:18;;;;;;;17.55;9.80;;;18.90;91.60;;;;;;4997079;28;20050;-66
2022/08/19 05:14:47;;;;;;;10.82;7.82;;;19.00;91.30;;;;;;5022388;28;20052;-67
2022/08/19 05:17:13;;;;;;;10.95;6.97;;;19.10;91.20;;;;;;5015754;28;20057;-66
2022/08/19 05:22:34;;;;;;;12.43;7.97;;;19.30;90.70;;;;;;5010641;28;20046;-67
2022/08/19 05:25:02;;;;;;;10.43;7.05;;;19.40;90.50;;;;;;5010896;28;20084;-67
2022/08/19 05:27:28;;;;;;;;;;;19.50;90.40;;;;;;5011946;28;20329;-66
2022/08/19 05:29:54;;;;;;;9.48;6.57;;;19.50;90.20;;;;;;5022235;28;19912;-67
2022/08/19 05:32:21;;;;;;;10.38;7.10;;;19.60;90.00;;;;;;5027147;28;20071;-67
2022/08/19 05:34:47;;;;;;;13.75;8.95;;;19.60;89.70;;;;;;5048597;28;20053;-67
2022/08/19 05:37:13;;;;;;;12.05;8.93;;;19.40;90.20;;;;;;5017311;28;20380;-66
2022/08/19 05:39:40;;;;;;;13.27;8.88;;;19.30;90.50;;;;;;5026876;28;20049;-67
2022/08/19 05:42:10;;;;;;;14.80;9.27;;;19.30;90.50;;;;;;5017870;28;20068;-65
2022/08/19 05:44:39;;;;;;;11.18;8.35;;;19.10;90.80;;;;;;5030270;28;20046;-66
2022/08/19 05:47:06;;;;;;;13.25;8.63;;;19.20;90.60;;;;;;5015769;28;20118;-66
2022/08/19 05:49:32;;;;;;;14.20;10.10;;;19.10;91.00;;;;;;5023520;28;20056;-66
2022/08/19 05:51:59;;;;;;;12.02;9.38;;;19.00;91.10;;;;;;5019253;28;20052;-67
2022/08/19 05:54:25;;;;;;;13.20;10.05;;;18.90;91.20;;;;;;5010999;28;20161;-67
2022/08/19 05:56:51;;;;;;;13.68;9.73;;;18.80;91.30;;;;;;5016734;28;20140;-67
2022/08/19 05:59:17;;;;;;;12.35;9.40;;;18.70;91.80;;;;;;5018201;28;20076;-66
2022/08/19 06:01:45;;;;;;;13.75;9.38;;;18.70;91.80;;;;;;5028421;28;20064;-67
2022/08/19 06:04:11;;;;;;;12.53;9.80;;;18.70;91.90;;;;;;5026612;28;20384;-68
2022/08/19 06:06:37;;;;;;;13.10;9.13;;;18.70;91.80;;;;;;5002169;28;20156;-65
2022/08/19 06:09:03;;;;;;;12.15;8.85;;;18.80;91.50;;;;;;4998102;28;20140;-66
2022/08/19 06:11:59;;;;;;;11.55;8.05;;;18.70;91.30;;;;;;4994516;28;20053;-66
2022/08/19 06:14:30;;;;;;;11.25;8.85;;;18.80;91.40;;;;;;5014257;28;20649;-69
2022/08/19 06:16:56;;;;;;;13.65;9.07;;;18.90;91.30;;;;;;5017267;28;20546;-69
2022/08/19 06:19:24;;;;;;;13.18;7.78;;;19.00;91.00;;;;;;5025499;28;20091;-69
2022/08/19 06:21:50;;;;;;;12.57;8.30;;;19.10;90.70;;;;;;5027056;28;20056;-71
2022/08/19 06:24:18;;;;;;;12.73;7.80;;;19.20;90.50;;;;;;5024406;28;20050;-73
2022/08/19 06:26:46;;;;;;;11.05;7.80;;;19.10;90.60;;;;;;4997161;28;20081;-69
2022/08/19 06:29:13;;;;;;;12.60;7.75;;;19.10;90.50;;;;;;5056293;28;20131;-68
2022/08/19 06:31:42;;;;;;;10.48;7.47;;;19.10;90.60;;;;;;5001428;28;20045;-68
2022/08/19 06:34:08;;;;;;;10.48;7.25;;;19.20;90.30;;;;;;5010356;28;20049;-70
2022/08/19 06:36:36;;;;;;;11.23;7.15;;;19.20;90.20;;;;;;5006950;28;20057;-69
2022/08/19 06:39:03;;;;;;;9.88;6.53;;;19.30;90.00;;;;;;5006441;28;20108;-69
2022/08/19 06:41:30;;;;;;;12.27;6.93;;;19.40;89.70;;;;;;5010681;28;20053;-68
2022/08/19 06:43:55;;;;;;;11.15;6.63;;;19.40;89.70;;;;;;5016577;28;20349;-70
2022/08/19 06:46:22;;;;;;;9.00;6.68;;;19.40;89.90;;;;;;5004072;28;20041;-70
2022/08/19 06:48:48;;;;;;;10.95;6.63;;;19.40;89.40;;;;;;4995400;28;20073;-71
2022/08/19 06:51:17;;;;;;;9.73;6.43;;;19.50;88.80;;;;;;5023654;28;20071;-71
2022/08/19 06:53:46;;;;;;;9.98;6.10;;;19.40;88.90;;;;;;5016329;28;20057;-71
2022/08/19 06:56:13;;;;;;;8.45;6.32;;;19.40;88.80;;;;;;5018602;28;20085;-71
2022/08/19 06:58:39;;;;;;;10.30;6.60;;;19.30;88.90;;;;;;5015510;28;20475;-71
2022/08/19 07:01:05;;;;;;;10.45;6.32;;;19.30;89.10;;;;;;5018907;28;20060;-71
2022/08/19 07:03:32;;;;;;;8.88;6.15;;;19.30;89.10;;;;;;5015407;28;20117;-72
2022/08/19 07:06:03;;;;;;;7.78;5.70;;;19.30;88.80;;;;;;5025810;28;20041;-71
2022/08/19 07:08:28;;;;;;;8.45;5.47;;;19.30;89.00;;;;;;5010398;28;20049;-71
2022/08/19 07:10:54;;;;;;;11.68;5.57;;;19.30;88.70;;;;;;5029275;28;20055;-70
2022/08/19 07:13:21;;;;;;;10.82;5.75;;;19.20;88.90;;;;;;5008929;28;20485;-70
2022/08/19 07:15:50;;;;;;;11.32;5.53;;;19.40;88.40;;;;;;5020905;28;20162;-72
2022/08/19 07:18:18;;;;;;;8.82;6.32;;;19.30;88.50;;;;;;5010150;28;20057;-70
2022/08/19 07:20:43;;;;;;;8.52;5.22;;;19.30;88.10;;;;;;5012918;28;20118;-71
2022/08/19 07:23:09;;;;;;;8.95;5.28;;;19.40;88.10;;;;;;5017090;28;20049;-70
2022/08/19 07:25:36;;;;;;;9.88;5.88;;;19.50;87.80;;;;;;5007700;28;20100;-71
2022/08/19 07:28:02;;;;;;;10.60;5.97;;;19.40;88.10;;;;;;5036579;28;20080;-70
2022/08/19 07:30:28;;;;;;;9.00;5.13;;;19.40;88.00;;;;;;5012181;28;20042;-71
2022/08/19 07:32:55;;;;;;;7.22;5.15;;;19.50;87.90;;;;;;5004097;28;20107;-72
2022/08/19 07:35:21;;;;;;;9.45;5.88;;;19.60;87.50;;;;;;5010098;28;20060;-71
2022/08/19 07:37:47;;;;;;;7.75;5.18;;;19.50;87.30;;;;;;5020901;28;20053;-71
2022/08/19 07:40:13;;;;;;;12.68;5.68;;;19.50;87.50;;;;;;5017137;28;20049;-71
2022/08/19 07:42:39;;;;;;;11.85;5.75;;;19.40;87.70;;;;;;5017206;28;20135;-70
2022/08/19 07:45:08;;;;;;;7.82;4.97;;;19.40;87.80;;;;;;5018506;28;20434;-71
2022/08/19 07:47:34;;;;;;;6.78;5.10;;;19.50;87.70;;;;;;5009611;28;20108;-71
2022/08/19 07:49:59;;;;;;;11.50;5.57;;;19.50;87.40;;;;;;4985065;28;20471;-71
2022/08/19 07:52:25;;;;;;;9.40;5.13;;;19.40;87.80;;;;;;5012715;28;20132;-70
2022/08/19 07:54:51;;;;;;;8.98;5.22;;;19.50;87.70;;;;;;5026402;28;20049;-71
2022/08/19 07:57:18;;;;;;;8.52;5.40;;;19.50;87.50;;;;;;4989291;28;20108;-70
2022/08/19 07:59:44;;;;;;;8.65;6.00;;;19.40;87.70;;;;;;5011940;28;20045;-70
2022/08/19 08:02:10;;;;;;;8.13;5.85;;;19.40;88.50;;;;;;5015225;28;20056;-70
2022/08/19 08:10:07;;;;;;;7.80;5.80;;;19.00;90.10;;;;;;5011753;28;20416;-70
2022/08/19 08:12:40;;;;;;;8.63;6.07;;;19.00;90.20;;;;;;5023223;28;20439;-71
2022/08/19 08:15:09;;;;;;;7.97;6.00;;;19.10;90.20;;;;;;4992460;28;20137;-70
2022/08/19 08:17:36;;;;;;;8.07;5.72;;;19.10;90.40;;;;;;5038934;28;20084;-70
2022/08/19 08:20:06;;;;;;;7.78;6.07;;;19.10;90.10;;;;;;5028453;28;20153;-71
2022/08/19 08:25:31;;;;;;;10.43;5.80;;;19.30;89.90;;;;;;5006419;28;20200;-66
2022/08/19 08:27:59;;;;;;;9.48;5.60;;;19.30;89.30;;;;;;5025468;28;20748;-67
2022/08/19 08:30:25;;;;;;;8.60;6.07;;;19.30;88.80;;;;;;5023533;28;20122;-68
2022/08/19 08:32:51;;;;;;;6.75;5.15;;;19.40;89.20;;;;;;5030955;28;20159;-66
2022/08/19 08:35:18;;;;;;;7.40;5.10;;;19.50;89.10;;;;;;5005401;28;20049;-68
2022/08/19 08:37:45;;;;;;;10.27;5.57;;;19.40;89.00;;;;;;5012001;28;20098;-67
2022/08/19 08:40:22;;;;;;;11.65;5.75;;;19.50;88.30;;;;;;5024686;28;20049;-68
2022/08/19 08:43:05;;;;;;;6.93;5.45;;;19.30;88.70;;;;;;5030345;28;20056;-67
2022/08/19 08:45:33;;;;;;;9.07;5.35;;;19.30;88.60;;;;;;5029718;28;20048;-68
2022/08/19 08:48:14;;;;;;;8.70;5.25;;;19.40;88.30;;;;;;5001457;28;20042;-70
2022/08/19 08:50:42;;;;;;;10.48;5.68;;;19.40;88.70;;;;;;5039709;28;20042;-70
2022/08/19 08:53:08;;;;;;;12.05;5.40;;;19.40;88.70;;;;;;5023379;28;20045;-67
2022/08/19 08:55:33;;;;;;;10.45;5.32;;;19.30;88.60;;;;;;5030385;28;20045;-67
2022/08/19 08:58:30;;;;;;;7.95;5.38;;;19.20;88.40;;;;;;5004607;28;20111;-66
2022/08/19 09:00:57;;;;;;;8.70;5.47;;;19.20;89.30;;;;;;5037385;28;20053;-67
2022/08/19 09:03:25;;;;;;;10.60;5.78;;;19.10;89.20;;;;;;5009288;28;20042;-67
2022/08/19 09:06:01;;;;;;;8.32;5.55;;;19.10;88.60;;;;;;4977383;28;20760;-66
2022/08/19 09:08:40;;;;;;;10.35;6.03;;;19.10;89.10;;;;;;5042645;28;20044;-66
2022/08/19 09:11:09;;;;;;;7.70;5.07;;;19.10;89.50;;;;;;5014917;28;20050;-68
2022/08/19 09:13:53;;;;;;;;;;;19.10;88.00;;;;;;5009886;28;20064;-68
2022/08/19 09:16:21;;;;;;;8.73;5.07;;;19.10;89.20;;;;;;5024087;28;20234;-69
2022/08/19 09:18:54;;;;;;;8.97;5.80;;;19.10;88.10;;;;;;5026448;28;20057;-68
2022/08/19 09:21:22;;;;;;;6.75;5.22;;;19.10;88.90;;;;;;5016819;28;20357;-68
2022/08/19 09:23:48;;;;;;;7.72;5.40;;;19.20;88.80;;;;;;4994029;28;20038;-69
2022/08/19 09:26:15;;;;;;;8.57;5.38;;;19.30;87.10;;;;;;5019216;28;20065;-69
2022/08/19 09:28:43;;;;;;;7.05;4.80;;;19.30;87.20;;;;;;5015016;28;20094;-68
2022/08/19 09:31:10;;;;;;;7.27;5.27;;;19.30;87.20;;;;;;5014683;28;20506;-68
2022/08/19 09:33:38;;;;;;;6.43;4.50;;;19.30;86.70;;;;;;5033315;28;20056;-68
2022/08/19 09:36:07;;;;;;;5.93;4.47;;;19.30;87.00;;;;;;5004185;28;20065;-68
2022/08/19 09:38:40;;;;;;;6.70;4.22;;;19.40;87.10;;;;;;4997639;28;20077;-68
2022/08/19 09:41:13;;;;;;;6.95;4.53;;;19.60;85.90;;;;;;5026237;28;20049;-67
2022/08/19 09:43:42;;;;;;;8.27;4.00;;;19.60;85.40;;;;;;5017062;28;20045;-67
2022/08/19 09:46:11;;;;;;;10.35;5.15;;;19.70;85.10;;;;;;5014009;28;20051;-68
2022/08/19 09:48:40;;;;;;;8.07;4.95;;;19.70;84.60;;;;;;5033894;28;20045;-67
2022/08/19 09:51:15;;;;;;;7.70;5.15;;;19.80;84.40;;;;;;5006815;28;20160;-68
2022/08/19 09:53:49;;;;;;;7.68;5.60;;;19.80;83.90;;;;;;5018778;28;20050;-68
2022/08/19 09:56:17;;;;;;;8.15;4.47;;;19.80;84.50;;;;;;4998886;28;20100;-67
2022/08/19 09:58:44;;;;;;;6.82;4.80;;;19.80;84.80;;;;;;4985284;28;20088;-67
2022/08/19 10:01:24;;;;;;;8.77;4.78;;;19.90;84.20;;;;;;5023301;28;20060;-69
2022/08/19 10:03:53;;;;;;;8.25;5.38;;;20.00;84.60;;;;;;5002855;28;20132;-73
2022/08/19 10:06:20;;;;;;;9.98;5.82;;;20.00;83.20;;;;;;5002286;28;20045;-71
2022/08/19 10:08:45;;;;;;;10.55;5.57;;;19.90;83.40;;;;;;5042021;28;20483;-71
2022/08/19 10:11:12;;;;;;;7.97;5.85;;;20.00;83.20;;;;;;5028938;28;20049;-71
2022/08/19 10:13:38;;;;;;;7.65;5.55;;;19.90;83.50;;;;;;5029620;28;20057;-70
2022/08/19 10:16:06;;;;;;;10.15;5.93;;;20.10;83.30;;;;;;5017661;28;20055;-71
2022/08/19 10:18:33;;;;;;;11.65;7.43;;;19.90;83.40;;;;;;5033243;28;20048;-71
2022/08/19 10:21:08;;;;;;;9.20;6.33;;;19.80;82.90;;;;;;5009935;28;20500;-70
2022/08/19 10:23:34;;;;;;;8.57;6.13;;;19.70;83.80;;;;;;5007158;28;20041;-70
2022/08/19 10:26:00;;;;;;;9.07;6.07;;;19.70;84.00;;;;;;5013664;28;20119;-71
2022/08/19 10:28:26;;;;;;;8.05;6.25;;;19.80;84.00;;;;;;5014026;28;20050;-70
2022/08/19 10:30:52;;;;;;;8.38;6.32;;;19.90;83.90;;;;;;5028635;28;20077;-72
2022/08/19 10:33:19;;;;;;;11.35;7.05;;;19.80;83.90;;;;;;5014546;28;20087;-71
2022/08/19 10:35:46;;;;;;;8.93;6.40;;;19.80;83.60;;;;;;5004223;28;20076;-70
2022/08/19 10:38:12;;;;;;;10.45;7.28;;;19.80;83.90;;;;;;4998510;28;20093;-71
2022/08/19 10:40:38;;;;;;;10.98;7.22;;;19.80;83.70;;;;;;5009520;28;20144;-71
2022/08/19 10:43:03;;;;;;;9.90;6.88;;;19.80;84.00;;;;;;5007442;28;20065;-71
2022/08/19 10:45:29;;;;;;;11.10;6.78;;;19.80;83.80;;;;;;5008559;28;20540;-71
2022/08/19 10:47:55;;;;;;;9.65;6.20;;;19.80;83.70;;;;;;5008622;28;20052;-71
2022/08/19 10:53:08;;;;;;;9.73;7.00;;;19.80;84.20;;;;;;5007898;28;20128;-71
2022/08/19 10:58:25;;;;;;;7.57;6.00;;;19.90;83.40;;;;;;5008792;28;19971;-71
2022/08/19 11:00:53;;;;;;;10.60;7.43;;;20.00;83.60;;;;;;5012134;28;20135;-71
2022/08/19 11:03:19;;;;;;;12.53;8.00;;;20.10;83.50;;;;;;5010526;28;20099;-70
2022/08/19 11:05:44;;;;;;;9.27;7.85;;;20.20;83.40;;;;;;4994163;28;20350;-71
2022/08/19 11:08:11;;;;;;;9.18;7.03;;;20.20;82.60;;;;;;5010437;28;20056;-71
2022/08/19 11:10:42;;;;;;;9.27;5.60;;;20.30;83.20;;;;;;5014037;28;20135;-71
2022/08/19 11:13:08;;;;;;;9.55;6.97;;;20.40;83.10;;;;;;5043762;28;20553;-71
2022/08/19 11:15:33;;;;;;;7.80;6.93;;;20.50;82.40;;;;;;4992262;28;20128;-71
2022/08/19 11:17:59;;;;;;;9.52;7.38;;;20.50;82.40;;;;;;5007628;28;20069;-71
2022/08/19 11:20:25;;;;;;;13.00;8.55;;;20.50;82.00;;;;;;4991604;28;20041;-71
2022/08/19 11:22:53;;;;;;;10.07;8.13;;;20.40;82.00;;;;;;5007264;28;20046;-71
2022/08/19 11:25:18;;;;;;;11.23;8.82;;;20.40;82.10;;;;;;5007037;28;20050;-67
2022/08/19 11:27:45;;;;;;;11.57;9.18;;;20.50;81.80;;;;;;5000612;28;20126;-68
2022/08/19 11:30:12;;;;;;;10.15;8.00;;;20.40;81.80;;;;;;4993810;28;20129;-68
2022/08/19 11:32:38;;;;;;;8.63;7.25;;;20.40;82.00;;;;;;5007882;28;20157;-68
2022/08/19 11:35:07;;;;;;;10.13;7.28;;;20.50;82.30;;;;;;5006937;28;20052;-68
2022/08/19 11:37:36;;;;;;;10.20;6.93;;;20.50;81.70;;;;;;5046305;28;20046;-68
2022/08/19 11:40:04;;;;;;;9.95;7.38;;;20.50;81.80;;;;;;5003314;28;20046;-68
2022/08/19 11:45:14;;;;;;;7.30;6.35;;;20.60;81.50;;;;;;5013024;28;20048;-68
2022/08/19 11:47:39;;;;;;;9.35;6.85;;;20.70;81.50;;;;;;5014426;28;20049;-69
2022/08/19 11:50:05;;;;;;;8.70;6.60;;;20.70;81.70;;;;;;5010442;28;20049;-68
2022/08/19 11:52:31;;;;;;;8.98;6.07;;;20.70;81.20;;;;;;5057860;28;20387;-67
2022/08/19 11:54:57;;;;;;;9.93;6.47;;;20.80;81.20;;;;;;5010783;28;20049;-68
2022/08/19 11:57:22;;;;;;;7.03;5.60;;;20.90;81.00;;;;;;5012997;28;20474;-68
2022/08/19 11:59:50;;;;;;;9.30;5.10;;;20.90;80.90;;;;;;5022967;28;20053;-68
2022/08/19 12:02:16;;;;;;;6.95;5.05;;;21.00;80.90;;;;;;5022337;28;20156;-69
2022/08/19 12:04:42;;;;;;;8.30;5.15;;;21.20;80.30;;;;;;5013111;28;20156;-68
2022/08/19 12:07:07;;;;;;;6.88;4.85;;;21.30;79.30;;;;;;5012509;28;20077;-67
2022/08/19 12:09:34;;;;;;;5.50;4.63;;;21.40;79.60;;;;;;5008677;28;20165;-68
2022/08/19 12:12:01;;;;;;;6.22;4.70;;;21.70;79.30;;;;;;5019206;28;20127;-68
2022/08/19 12:14:29;;;;;;;5.80;4.97;;;21.80;78.80;;;;;;5011245;28;20077;-69
2022/08/19 12:16:55;;;;;;;5.78;4.68;;;21.90;77.50;;;;;;4998102;28;20057;-68
2022/08/19 12:19:21;;;;;;;6.47;4.90;;;22.00;77.50;;;;;;5010821;28;20432;-67
2022/08/19 12:21:47;;;;;;;5.80;4.20;;;22.20;76.90;;;;;;5011242;28;20049;-68
2022/08/19 12:24:13;;;;;;;5.43;4.07;;;22.50;77.60;;;;;;5016561;28;20124;-68
2022/08/19 12:26:39;;;;;;;4.70;3.58;;;22.80;77.40;;;;;;4994893;28;20132;-68
2022/08/19 12:29:05;;;;;;;4.15;3.60;;;23.10;76.70;;;;;;5020541;28;20053;-68
2022/08/19 12:31:31;;;;;;;5.90;3.65;;;23.20;75.20;;;;;;5020336;28;20041;-68
2022/08/19 12:33:56;;;;;;;4.68;4.18;;;23.30;74.70;;;;;;5016404;28;20124;-67
2022/08/19 12:36:23;;;;;;;6.75;4.38;;;23.20;72.40;;;;;;5014818;28;20037;-67
2022/08/19 12:38:48;;;;;;;8.27;4.20;;;23.10;73.40;;;;;;5011406;28;20395;-68
2022/08/19 12:41:17;;;;;;;4.68;3.50;;;23.00;72.90;;;;;;5040977;28;20045;-68
2022/08/19 12:43:43;;;;;;;5.93;4.10;;;23.30;73.00;;;;;;5016477;28;20084;-68
2022/08/19 12:46:08;;;;;;;6.72;4.57;;;23.50;71.90;;;;;;5010827;28;20455;-68
2022/08/19 12:48:35;;;;;;;5.07;3.70;;;23.50;71.20;;;;;;5006499;28;20520;-67
2022/08/19 12:51:09;;;;;;;6.97;3.65;;;23.60;72.10;;;;;;5046933;28;20088;-67
2022/08/19 12:53:35;;;;;;;4.25;3.83;;;23.80;71.20;;;;;;5015751;28;20056;-69
2022/08/19 12:56:01;;;;;;;3.90;3.47;;;23.90;70.50;;;;;;5012356;28;20050;-67
2022/08/19 12:58:28;;;;;;;7.43;3.80;;;24.20;70.80;;;;;;5011583;28;20084;-67
2022/08/19 13:00:53;;;;;;;4.53;4.03;;;24.10;69.10;;;;;;5014450;28;20173;-68
2022/08/19 13:03:19;;;;;;;3.88;2.95;;;24.10;69.30;;;;;;5011592;28;20439;-68
2022/08/19 13:05:45;;;;;;;4.38;3.78;;;24.20;69.70;;;;;;5015525;28;20054;-68